Time;durP1;ratioP1;P1;durP2;ratioP2;P2;SDS_P1;SDS_P2;PMS_P1;PMS_P2;Temp;Humidity;BMP_temperature;BMP_pressure;BME280_temperature;BME280_humidity;BME280_pressure;Samples;Min_cycle;Max_cycle;Signal;HPM_P1;HPM_P2
2022/07/11 00:02:15;;;;;;;1.90;0.80;;;18.90;85.90;;;;;;5066777;28;20017;-62
2022/07/11 00:04:48;;;;;;;4.10;0.93;;;19.00;86.10;;;;;;5065819;28;20020;-62
2022/07/11 00:07:14;;;;;;;2.58;0.70;;;18.90;86.30;;;;;;5065365;28;20027;-62
2022/07/11 00:09:40;;;;;;;2.55;0.80;;;18.90;86.50;;;;;;5066362;28;20036;-62
2022/07/11 00:12:06;;;;;;;1.55;0.70;;;18.90;86.60;;;;;;5067693;28;20029;-62
2022/07/11 00:14:32;;;;;;;2.83;0.70;;;18.90;86.70;;;;;;5064746;28;20121;-62
2022/07/11 00:16:57;;;;;;;1.60;0.70;;;18.90;86.90;;;;;;5066033;28;20497;-62
2022/07/11 00:19:23;;;;;;;3.03;0.98;;;18.90;87.70;;;;;;5067672;28;20107;-62
2022/07/11 00:21:50;;;;;;;2.95;0.68;;;18.90;87.10;;;;;;5067122;28;20380;-62
2022/07/11 00:24:19;;;;;;;1.77;0.70;;;18.90;87.20;;;;;;5064544;28;20028;-62
2022/07/11 00:26:48;;;;;;;2.78;0.60;;;18.90;87.40;;;;;;5065513;28;20029;-62
2022/07/11 00:29:13;;;;;;;3.15;0.77;;;18.90;87.50;;;;;;5067314;28;20105;-62
2022/07/11 00:31:39;;;;;;;2.38;0.65;;;18.90;87.70;;;;;;5069400;28;20102;-62
2022/07/11 00:34:04;;;;;;;1.65;0.65;;;18.90;87.80;;;;;;5071602;28;20032;-62
2022/07/11 00:36:31;;;;;;;2.30;0.70;;;18.90;87.80;;;;;;5073544;28;20044;-62
2022/07/11 00:38:57;;;;;;;1.95;0.60;;;18.90;87.90;;;;;;5069335;28;20151;-62
2022/07/11 00:41:23;;;;;;;1.95;0.80;;;18.90;88.00;;;;;;5070897;28;20056;-62
2022/07/11 00:43:54;;;;;;;1.65;0.60;;;18.90;88.10;;;;;;5071891;28;20102;-62
2022/07/11 00:46:20;;;;;;;2.00;0.65;;;18.90;88.20;;;;;;5069088;28;20025;-62
2022/07/11 00:48:46;;;;;;;3.63;0.60;;;18.90;88.30;;;;;;5072248;28;20544;-62
2022/07/11 00:51:11;;;;;;;0.93;0.50;;;18.90;88.40;;;;;;5070180;28;20214;-62
2022/07/11 00:53:38;;;;;;;4.38;0.70;;;18.90;88.50;;;;;;5070719;28;20030;-62
2022/07/11 00:56:05;;;;;;;3.92;1.30;;;18.90;88.60;;;;;;5070338;28;20045;-62
2022/07/11 00:58:30;;;;;;;3.47;0.80;;;18.90;88.70;;;;;;5086419;28;20452;-63
2022/07/11 01:00:57;;;;;;;2.30;0.60;;;18.90;88.80;;;;;;5068292;28;20031;-62
2022/07/11 01:03:23;;;;;;;2.70;0.50;;;18.90;88.80;;;;;;5068221;28;20016;-62
2022/07/11 01:05:48;;;;;;;1.90;0.60;;;18.90;88.90;;;;;;5068254;28;20161;-62
2022/07/11 01:08:15;;;;;;;2.55;0.60;;;18.90;88.90;;;;;;5053724;28;20091;-62
2022/07/11 01:10:40;;;;;;;2.63;0.50;;;18.90;89.00;;;;;;5069270;28;20035;-62
2022/07/11 01:13:07;;;;;;;2.92;0.70;;;18.90;89.10;;;;;;5069955;28;20025;-62
2022/07/11 01:15:35;;;;;;;1.08;0.43;;;18.90;89.30;;;;;;5070404;28;20025;-62
2022/07/11 01:18:01;;;;;;;2.50;0.55;;;18.90;89.40;;;;;;5070429;28;20031;-62
2022/07/11 01:20:27;;;;;;;3.08;0.50;;;18.90;89.50;;;;;;5068168;28;20538;-62
2022/07/11 01:22:56;;;;;;;2.00;0.68;;;18.90;89.70;;;;;;5070401;28;20028;-62
2022/07/11 01:25:30;;;;;;;1.50;0.50;;;18.90;89.80;;;;;;5070575;28;20024;-62
2022/07/11 01:28:02;;;;;;;3.80;0.68;;;18.90;89.90;;;;;;5069339;28;20024;-62
2022/07/11 01:30:29;;;;;;;3.10;0.75;;;18.90;90.00;;;;;;5069073;28;20531;-62
2022/07/11 01:32:56;;;;;;;0.63;0.40;;;18.90;90.10;;;;;;5070940;28;20104;-62
2022/07/11 01:35:23;;;;;;;3.28;0.60;;;18.90;90.10;;;;;;5071330;28;20021;-62
2022/07/11 01:37:49;;;;;;;0.82;0.45;;;18.90;90.20;;;;;;5069007;28;20571;-62
2022/07/11 01:40:15;;;;;;;2.88;0.52;;;18.90;90.20;;;;;;5068387;28;20054;-63
2022/07/11 01:42:41;;;;;;;1.98;0.43;;;18.90;90.30;;;;;;5068718;28;20069;-62
2022/07/11 01:45:08;;;;;;;1.08;0.40;;;18.90;90.30;;;;;;5070045;28;20110;-62
2022/07/11 01:47:33;;;;;;;2.88;0.88;;;18.90;90.40;;;;;;5068960;28;20033;-63
2022/07/11 01:49:59;;;;;;;0.85;0.45;;;18.90;90.40;;;;;;5068447;28;20366;-62
2022/07/11 01:52:25;;;;;;;2.75;0.85;;;18.80;90.40;;;;;;5068080;28;20025;-62
2022/07/11 01:54:51;;;;;;;2.90;1.20;;;18.80;90.50;;;;;;5070773;28;20047;-62
2022/07/11 01:57:16;;;;;;;1.88;0.60;;;18.90;90.50;;;;;;5067672;28;20508;-62
2022/07/11 01:59:42;;;;;;;1.83;0.50;;;18.80;90.50;;;;;;5069103;28;20129;-62
2022/07/11 02:02:07;;;;;;;2.60;0.60;;;18.90;90.60;;;;;;5067201;28;20611;-62
2022/07/11 02:04:33;;;;;;;1.77;0.50;;;18.90;90.60;;;;;;5070644;28;20028;-63
2022/07/11 02:06:59;;;;;;;2.90;0.50;;;18.90;90.60;;;;;;5067984;28;20433;-62
2022/07/11 02:09:24;;;;;;;1.90;0.40;;;18.90;90.70;;;;;;5069386;28;20507;-62
2022/07/11 02:11:50;;;;;;;2.63;0.50;;;18.90;90.70;;;;;;5068590;28;20484;-62
2022/07/11 02:14:15;;;;;;;1.23;0.65;;;18.80;90.70;;;;;;5068548;28;20484;-62
2022/07/11 02:16:41;;;;;;;1.63;0.50;;;18.90;90.80;;;;;;5066519;28;20036;-62
2022/07/11 02:19:07;;;;;;;2.10;0.50;;;18.80;90.80;;;;;;5070378;28;20107;-62
2022/07/11 02:21:33;;;;;;;2.78;0.60;;;18.90;90.80;;;;;;5067349;28;20017;-63
2022/07/11 02:23:59;;;;;;;3.40;0.40;;;18.80;90.80;;;;;;5068535;28;20074;-62
2022/07/11 02:26:25;;;;;;;2.72;0.50;;;18.90;90.90;;;;;;5068530;28;20427;-62
2022/07/11 02:28:50;;;;;;;1.25;0.50;;;18.80;90.90;;;;;;5070184;28;20048;-62
2022/07/11 02:31:16;;;;;;;1.20;0.60;;;18.80;91.00;;;;;;5066568;28;20107;-62
2022/07/11 02:33:42;;;;;;;1.67;0.43;;;18.80;91.00;;;;;;5067801;28;20021;-62
2022/07/11 02:36:08;;;;;;;2.42;0.60;;;18.80;91.00;;;;;;5065610;28;20380;-62
2022/07/11 02:38:34;;;;;;;3.00;0.73;;;18.80;91.10;;;;;;5073500;28;20513;-62
2022/07/11 02:41:00;;;;;;;2.50;0.60;;;18.80;91.10;;;;;;5070255;28;20021;-62
2022/07/11 02:43:26;;;;;;;1.80;0.70;;;18.80;91.20;;;;;;5068754;28;20027;-62
2022/07/11 02:45:52;;;;;;;3.33;0.60;;;18.80;91.20;;;;;;5067952;28;20020;-62
2022/07/11 02:48:17;;;;;;;3.13;0.77;;;18.80;91.30;;;;;;5067607;28;20036;-62
2022/07/11 02:50:43;;;;;;;2.45;1.13;;;18.80;91.40;;;;;;5066550;28;20028;-62
2022/07/11 02:53:09;;;;;;;2.60;0.93;;;18.80;91.50;;;;;;5069697;28;20036;-62
2022/07/11 02:55:34;;;;;;;2.80;0.95;;;18.80;91.60;;;;;;5064840;28;20021;-62
2022/07/11 02:58:00;;;;;;;2.58;0.95;;;18.80;91.70;;;;;;5067361;28;20044;-62
2022/07/11 03:00:25;;;;;;;2.55;1.05;;;18.70;91.80;;;;;;5069226;28;20055;-62
2022/07/11 03:02:51;;;;;;;3.33;1.17;;;18.70;91.90;;;;;;5068622;28;20024;-62
2022/07/11 03:05:16;;;;;;;2.25;1.40;;;18.70;92.00;;;;;;5065156;28;20020;-62
2022/07/11 03:07:42;;;;;;;5.00;1.17;;;18.70;92.00;;;;;;5067298;28;20024;-62
2022/07/11 03:10:09;;;;;;;3.50;1.02;;;18.70;92.10;;;;;;5066735;28;20086;-62
2022/07/11 03:12:34;;;;;;;4.20;1.83;;;18.70;92.20;;;;;;5068996;28;20017;-62
2022/07/11 03:15:00;;;;;;;2.28;1.05;;;18.70;92.30;;;;;;5068776;28;20020;-62
2022/07/11 03:17:25;;;;;;;2.55;0.90;;;18.70;92.30;;;;;;5067320;28;20048;-62
2022/07/11 03:19:51;;;;;;;2.03;1.17;;;18.60;92.40;;;;;;5069200;28;20021;-62
2022/07/11 03:22:17;;;;;;;2.20;1.23;;;18.60;92.40;;;;;;5066910;28;20388;-62
2022/07/11 03:24:44;;;;;;;2.85;1.10;;;18.60;92.50;;;;;;5068944;28;20020;-62
2022/07/11 03:27:10;;;;;;;2.90;1.00;;;18.60;92.60;;;;;;5066100;28;20024;-62
2022/07/11 03:29:36;;;;;;;2.35;0.85;;;18.60;92.70;;;;;;5067302;28;20034;-62
2022/07/11 03:32:02;;;;;;;3.47;0.93;;;18.60;92.70;;;;;;5066718;28;20043;-62
2022/07/11 03:34:28;;;;;;;2.15;0.80;;;18.60;92.80;;;;;;5068797;28;20024;-62
2022/07/11 03:36:54;;;;;;;2.45;0.70;;;18.60;92.90;;;;;;5066245;28;20074;-62
2022/07/11 03:39:21;;;;;;;2.92;0.50;;;18.60;92.90;;;;;;5068997;28;20074;-62
2022/07/11 03:41:46;;;;;;;3.38;0.70;;;18.60;93.00;;;;;;5067099;28;20051;-62
2022/07/11 03:44:12;;;;;;;1.70;0.60;;;18.60;93.00;;;;;;5066964;28;20060;-62
2022/07/11 03:46:38;;;;;;;2.40;0.50;;;18.60;93.00;;;;;;5068578;28;20424;-62
2022/07/11 03:49:03;;;;;;;1.40;0.60;;;18.60;93.10;;;;;;5064878;28;20021;-62
2022/07/11 03:51:29;;;;;;;1.40;0.70;;;18.60;93.10;;;;;;5068418;28;20062;-62
2022/07/11 03:53:55;;;;;;;1.65;0.70;;;18.60;93.10;;;;;;5063459;28;20035;-62
2022/07/11 03:56:22;;;;;;;1.90;0.60;;;18.60;93.10;;;;;;5067860;28;20049;-62
2022/07/11 03:58:49;;;;;;;1.10;0.55;;;18.60;93.10;;;;;;5079716;28;20356;-62
2022/07/11 04:01:14;;;;;;;1.25;0.38;;;18.60;93.10;;;;;;5067841;28;20504;-62
2022/07/11 04:03:40;;;;;;;1.02;0.52;;;18.60;93.10;;;;;;5067924;28;20060;-62
2022/07/11 04:06:05;;;;;;;1.00;0.40;;;18.60;93.10;;;;;;5065899;28;20086;-62
2022/07/11 04:08:31;;;;;;;1.73;0.52;;;18.50;93.10;;;;;;5066929;28;20085;-61
2022/07/11 04:10:56;;;;;;;1.95;0.40;;;18.60;93.20;;;;;;5067999;28;20024;-61
2022/07/11 04:13:22;;;;;;;1.73;0.77;;;18.50;93.30;;;;;;5067002;28;20024;-62
2022/07/11 04:15:47;;;;;;;1.67;0.60;;;18.50;93.30;;;;;;5065449;28;20082;-62
2022/07/11 04:18:13;;;;;;;3.13;0.93;;;18.50;93.40;;;;;;5065662;28;20025;-61
2022/07/11 04:20:40;;;;;;;2.28;0.43;;;18.50;93.50;;;;;;5067929;28;20420;-62
2022/07/11 04:23:05;;;;;;;1.10;0.40;;;18.50;93.60;;;;;;5068370;28;20051;-62
2022/07/11 04:25:32;;;;;;;2.72;0.50;;;18.50;93.70;;;;;;5064669;28;20016;-60
2022/07/11 04:27:58;;;;;;;1.52;0.40;;;18.50;93.80;;;;;;5065807;28;20032;-61
2022/07/11 04:30:23;;;;;;;2.88;0.60;;;18.40;93.90;;;;;;5067173;28;20028;-61
2022/07/11 04:32:48;;;;;;;2.00;0.93;;;18.40;94.00;;;;;;5067157;28;20020;-61
2022/07/11 04:35:14;;;;;;;1.80;0.50;;;18.40;94.10;;;;;;5066551;28;20210;-61
2022/07/11 04:38:23;;;;;;;1.25;0.40;;;18.40;94.20;;;;;;5065654;28;20496;-61
2022/07/11 04:40:49;;;;;;;1.35;0.43;;;18.40;94.20;;;;;;5066786;28;20379;-61
2022/07/11 04:43:15;;;;;;;1.15;0.40;;;18.40;94.40;;;;;;5067372;28;20524;-61
2022/07/11 04:45:40;;;;;;;2.20;0.40;;;18.40;94.50;;;;;;5066296;28;20100;-61
2022/07/11 04:48:06;;;;;;;0.80;0.47;;;18.40;94.50;;;;;;5066418;28;20036;-61
2022/07/11 04:50:32;;;;;;;1.63;0.50;;;18.40;94.50;;;;;;5065517;28;20028;-61
2022/07/11 04:52:58;;;;;;;2.47;0.50;;;18.40;94.60;;;;;;5066755;28;20588;-61
2022/07/11 04:55:23;;;;;;;3.63;0.52;;;18.40;94.60;;;;;;5066389;28;20044;-61
2022/07/11 04:57:49;;;;;;;2.60;0.55;;;18.40;94.70;;;;;;5067207;28;20067;-61
2022/07/11 05:00:15;;;;;;;1.52;0.40;;;18.40;94.70;;;;;;5066472;28;20499;-61
2022/07/11 05:02:40;;;;;;;1.25;0.50;;;18.50;94.80;;;;;;5066360;28;20032;-61
2022/07/11 05:05:06;;;;;;;3.05;0.57;;;18.40;94.80;;;;;;5065305;28;20111;-61
2022/07/11 05:07:32;;;;;;;1.50;0.70;;;18.40;94.90;;;;;;5067472;28;20491;-61
2022/07/11 05:09:57;;;;;;;1.35;0.52;;;18.50;95.00;;;;;;5064735;28;20069;-61
2022/07/11 05:12:23;;;;;;;3.60;0.63;;;18.50;95.10;;;;;;5067170;28;20025;-61
2022/07/11 05:14:48;;;;;;;2.28;0.50;;;18.50;95.10;;;;;;5065389;28;20061;-61
2022/07/11 05:17:14;;;;;;;1.00;0.50;;;18.50;95.10;;;;;;5067086;28;20017;-61
2022/07/11 05:19:40;;;;;;;2.40;0.63;;;18.50;95.20;;;;;;5069744;28;20515;-61
2022/07/11 05:22:41;;;;;;;3.10;0.60;;;18.50;95.20;;;;;;5070573;28;20075;-61
2022/07/11 05:25:06;;;;;;;2.65;0.70;;;18.50;95.30;;;;;;5068525;28;20518;-61
2022/07/11 05:27:32;;;;;;;2.15;0.80;;;18.50;95.40;;;;;;5068771;28;20028;-62
2022/07/11 05:29:58;;;;;;;2.00;0.50;;;18.40;95.50;;;;;;5070622;28;20036;-61
2022/07/11 05:32:23;;;;;;;3.92;0.60;;;18.50;95.60;;;;;;5069916;28;20028;-61
2022/07/11 05:34:49;;;;;;;2.13;0.40;;;18.50;95.70;;;;;;5071000;28;20064;-61
2022/07/11 05:37:14;;;;;;;3.25;0.70;;;18.50;95.80;;;;;;5070221;28;20031;-61
2022/07/11 05:39:40;;;;;;;3.38;0.63;;;18.50;95.90;;;;;;5069560;28;20052;-61
2022/07/11 05:42:05;;;;;;;1.35;0.50;;;18.50;95.90;;;;;;5065464;28;20035;-61
2022/07/11 05:44:31;;;;;;;3.65;0.60;;;18.50;96.00;;;;;;5070080;28;20107;-61
2022/07/11 05:47:01;;;;;;;1.52;0.63;;;18.60;96.00;;;;;;5069058;28;20041;-61
2022/07/11 05:49:27;;;;;;;2.10;0.55;;;18.60;96.00;;;;;;5065763;28;20024;-61
2022/07/11 05:51:53;;;;;;;1.42;0.50;;;18.60;96.10;;;;;;5070459;28;20094;-61
2022/07/11 05:54:18;;;;;;;2.53;0.43;;;18.60;96.10;;;;;;5072473;28;20415;-61
2022/07/11 05:56:44;;;;;;;1.08;0.43;;;18.60;96.20;;;;;;5071722;28;20115;-61
2022/07/11 05:59:09;;;;;;;0.82;0.57;;;18.60;96.20;;;;;;5073258;28;20396;-60
2022/07/11 06:01:35;;;;;;;1.58;0.60;;;18.60;96.20;;;;;;5071971;28;20046;-61
2022/07/11 06:04:04;;;;;;;2.25;1.00;;;18.70;96.30;;;;;;5072977;28;20059;-60
2022/07/11 06:06:30;;;;;;;2.67;0.80;;;18.70;96.30;;;;;;5070930;28;20377;-61
2022/07/11 06:08:55;;;;;;;3.05;0.70;;;18.70;96.30;;;;;;5065682;28;20020;-61
2022/07/11 06:11:21;;;;;;;1.30;0.50;;;18.70;96.30;;;;;;5064877;28;20025;-61
2022/07/11 06:14:16;;;;;;;1.02;0.55;;;18.80;96.40;;;;;;5061360;28;20070;-61
2022/07/11 06:16:41;;;;;;;1.17;0.43;;;18.90;96.30;;;;;;5069746;28;20036;-61
2022/07/11 06:19:07;;;;;;;1.10;0.68;;;18.80;96.40;;;;;;5069402;28;20025;-61
2022/07/11 06:21:33;;;;;;;0.88;0.50;;;18.90;96.40;;;;;;5082811;28;20043;-61
2022/07/11 06:23:59;;;;;;;0.95;0.50;;;18.90;96.40;;;;;;5062361;28;20012;-61
2022/07/11 06:26:25;;;;;;;1.25;0.52;;;18.90;96.50;;;;;;5063803;28;20035;-61
2022/07/11 06:28:50;;;;;;;2.45;0.60;;;18.90;96.50;;;;;;5065080;28;20029;-60
2022/07/11 06:31:16;;;;;;;2.45;0.50;;;18.90;96.50;;;;;;5057649;28;20033;-61
2022/07/11 06:33:42;;;;;;;1.55;0.60;;;19.00;96.50;;;;;;5062605;28;21286;-60
2022/07/11 06:36:08;;;;;;;2.97;0.75;;;19.00;96.50;;;;;;5068483;28;20025;-60
2022/07/11 06:38:34;;;;;;;2.70;0.70;;;19.00;96.50;;;;;;5067953;28;20395;-61
2022/07/11 06:41:00;;;;;;;1.75;0.55;;;19.10;96.50;;;;;;5066577;28;20016;-61
2022/07/11 06:43:27;;;;;;;1.30;0.57;;;19.10;96.40;;;;;;5065190;28;20021;-61
2022/07/11 06:45:53;;;;;;;0.80;0.50;;;19.20;96.40;;;;;;5069059;28;20028;-61
2022/07/11 06:48:20;;;;;;;2.05;0.50;;;19.20;96.40;;;;;;5066964;28;20016;-61
2022/07/11 06:50:46;;;;;;;1.20;0.60;;;19.20;96.30;;;;;;5062775;28;20025;-61
2022/07/11 06:53:11;;;;;;;1.48;0.50;;;19.30;96.40;;;;;;5067053;28;20032;-62
2022/07/11 06:55:37;;;;;;;2.13;0.90;;;19.40;96.30;;;;;;5079946;28;20036;-61
2022/07/11 06:58:03;;;;;;;1.13;0.60;;;19.40;96.20;;;;;;5067364;28;20035;-61
2022/07/11 07:00:28;;;;;;;2.55;0.77;;;19.50;96.20;;;;;;5080091;28;20063;-61
2022/07/11 07:02:57;;;;;;;1.25;0.60;;;19.50;96.20;;;;;;5065175;28;20066;-61
2022/07/11 07:05:24;;;;;;;2.25;0.45;;;19.50;96.20;;;;;;5054412;28;20021;-61
2022/07/11 07:07:51;;;;;;;0.68;0.40;;;19.60;96.10;;;;;;5073800;28;20024;-61
2022/07/11 07:10:17;;;;;;;0.60;0.50;;;19.60;96.00;;;;;;5064857;28;20094;-61
2022/07/11 07:12:44;;;;;;;1.25;0.52;;;19.70;95.90;;;;;;5066398;28;20027;-61
2022/07/11 07:15:10;;;;;;;1.10;0.60;;;19.80;95.80;;;;;;5082471;28;20104;-61
2022/07/11 07:17:35;;;;;;;0.73;0.40;;;19.80;95.70;;;;;;5060297;28;20104;-61
2022/07/11 07:20:01;;;;;;;0.80;0.40;;;19.80;95.60;;;;;;5070397;28;20112;-61
2022/07/11 07:22:27;;;;;;;1.02;0.40;;;19.90;95.50;;;;;;5062298;28;20035;-61
2022/07/11 07:24:52;;;;;;;0.93;0.30;;;20.00;95.30;;;;;;5064196;28;20021;-61
2022/07/11 07:27:18;;;;;;;0.63;0.38;;;20.10;95.20;;;;;;5062553;28;20145;-61
2022/07/11 07:30:01;;;;;;;1.38;0.50;;;20.20;95.00;;;;;;5056334;28;20029;-61
2022/07/11 07:32:26;;;;;;;1.42;0.40;;;20.30;94.80;;;;;;5060183;28;20141;-61
2022/07/11 07:34:52;;;;;;;1.00;0.40;;;20.40;94.70;;;;;;5061389;28;20030;-61
2022/07/11 07:37:17;;;;;;;0.43;0.22;;;20.40;94.50;;;;;;5071135;28;20031;-61
2022/07/11 07:39:43;;;;;;;0.68;0.30;;;20.50;94.40;;;;;;5065870;28;20032;-61
2022/07/11 07:42:08;;;;;;;1.52;0.45;;;20.60;94.20;;;;;;5061264;28;20017;-61
2022/07/11 07:44:34;;;;;;;1.08;0.70;;;20.70;94.00;;;;;;5066560;28;20516;-61
2022/07/11 07:47:35;;;;;;;;;;;;;;;;;;;;;
2022/07/11 07:50:23;;;;;;;0.82;0.30;;;20.80;93.70;;;;;;5060074;28;20021;-61
2022/07/11 07:52:48;;;;;;;0.70;0.40;;;20.80;93.50;;;;;;5059648;28;20107;-61
2022/07/11 07:55:14;;;;;;;0.70;0.30;;;20.90;93.40;;;;;;5068283;28;20559;-61
2022/07/11 07:57:39;;;;;;;0.35;0.30;;;21.00;93.30;;;;;;5056133;28;20051;-61
2022/07/11 08:02:51;;;;;;;2.15;0.30;;;21.10;93.00;;;;;;5058175;28;20036;-61
2022/07/11 08:05:18;;;;;;;0.73;0.40;;;21.20;92.90;;;;;;5056278;28;20093;-61
2022/07/11 08:07:44;;;;;;;0.50;0.40;;;21.20;92.70;;;;;;5073722;28;20024;-61
2022/07/11 08:10:10;;;;;;;0.30;0.30;;;21.20;92.70;;;;;;5065806;28;20532;-61
2022/07/11 08:12:35;;;;;;;1.13;0.30;;;21.30;92.60;;;;;;5070472;28;20395;-61
2022/07/11 08:15:01;;;;;;;0.77;0.50;;;21.40;92.50;;;;;;5056970;28;20060;-61
2022/07/11 08:17:34;;;;;;;1.02;0.30;;;21.40;92.30;;;;;;5068182;28;20029;-61
2022/07/11 08:19:59;;;;;;;0.93;0.30;;;21.50;92.10;;;;;;5066587;28;20021;-61
2022/07/11 08:22:25;;;;;;;0.35;0.25;;;21.60;92.10;;;;;;5056548;28;20064;-64
2022/07/11 08:24:50;;;;;;;0.40;0.20;;;21.70;91.80;;;;;;5063538;28;20484;-61
2022/07/11 08:27:16;;;;;;;0.95;0.38;;;21.70;91.50;;;;;;5066523;28;20028;-61
2022/07/11 08:29:41;;;;;;;0.30;0.30;;;21.60;91.30;;;;;;5063379;28;20029;-61
2022/07/11 08:32:07;;;;;;;1.75;0.30;;;21.50;91.30;;;;;;5068903;28;20020;-61
2022/07/11 08:34:33;;;;;;;1.10;0.22;;;21.40;91.20;;;;;;5072432;28;20023;-61
2022/07/11 08:36:58;;;;;;;1.15;0.30;;;21.40;91.30;;;;;;5066335;28;20112;-61
2022/07/11 08:40:09;;;;;;;0.60;0.30;;;21.40;91.30;;;;;;5062786;28;20025;-61
2022/07/11 08:42:41;;;;;;;0.77;0.32;;;21.50;91.20;;;;;;5080311;28;20489;-61
2022/07/11 08:45:10;;;;;;;0.60;0.30;;;21.50;91.10;;;;;;5072958;28;20020;-61
2022/07/11 08:47:36;;;;;;;0.32;0.22;;;21.60;91.00;;;;;;5072592;28;20111;-61
2022/07/11 08:50:07;;;;;;;1.08;0.30;;;21.60;90.80;;;;;;5059701;28;20187;-61
2022/07/11 08:52:33;;;;;;;0.50;0.30;;;21.60;90.60;;;;;;5074635;28;20028;-61
2022/07/11 08:54:59;;;;;;;0.30;0.20;;;21.60;90.60;;;;;;5073450;28;20499;-61
2022/07/11 08:57:25;;;;;;;0.20;0.20;;;21.60;90.50;;;;;;5076034;28;20048;-61
2022/07/11 09:00:19;;;;;;;0.20;0.20;;;21.60;90.40;;;;;;5059408;28;20021;-61
2022/07/11 09:02:46;;;;;;;0.30;0.20;;;21.60;90.30;;;;;;5065443;28;20024;-61
2022/07/11 09:05:12;;;;;;;0.65;0.30;;;21.60;90.30;;;;;;5058928;28;20025;-61
2022/07/11 09:07:46;;;;;;;1.05;0.20;;;21.60;90.20;;;;;;5071095;28;20126;-61
2022/07/11 09:10:12;;;;;;;0.20;0.17;;;21.60;90.10;;;;;;5081692;28;20028;-61
2022/07/11 09:12:56;;;;;;;0.30;0.20;;;21.60;90.20;;;;;;5087525;28;20017;-61
2022/07/11 09:15:35;;;;;;;0.47;0.47;;;21.60;90.00;;;;;;5069868;28;20039;-62
2022/07/11 09:18:02;;;;;;;0.20;0.20;;;21.70;89.70;;;;;;5067693;28;20029;-61
2022/07/11 09:25:19;;;;;;;0.57;0.22;;;21.70;89.70;;;;;;5063527;28;20024;-61
2022/07/11 09:26:40;;;;;;;;;;;;;;;;;;;;;
2022/07/11 09:29:11;;;;;;;1.00;0.22;;;22.00;88.50;;;;;;5064186;28;20031;-62
2022/07/11 09:31:41;;;;;;;0.30;0.20;;;22.00;88.40;;;;;;5063102;28;20439;-61
2022/07/11 09:34:10;;;;;;;0.60;0.20;;;22.00;88.10;;;;;;5081123;28;20025;-63
2022/07/11 09:36:40;;;;;;;0.70;0.30;;;22.10;88.00;;;;;;5062229;28;20030;-61
2022/07/11 09:39:11;;;;;;;0.30;0.30;;;22.10;87.90;;;;;;5064138;28;20033;-61
2022/07/11 09:41:37;;;;;;;0.35;0.30;;;22.10;87.80;;;;;;5061617;28;20017;-61
2022/07/11 09:44:08;;;;;;;0.30;0.28;;;22.10;87.70;;;;;;5068496;28;20103;-61
2022/07/11 09:46:34;;;;;;;0.32;0.30;;;22.00;87.60;;;;;;5068754;28;20091;-61
2022/07/11 09:49:00;;;;;;;0.25;0.20;;;22.00;87.60;;;;;;5062581;28;20043;-62
2022/07/11 09:51:27;;;;;;;0.35;0.30;;;22.00;87.60;;;;;;5066546;28;20068;-61
2022/07/11 09:53:57;;;;;;;0.88;0.30;;;22.00;87.60;;;;;;5078657;28;20104;-61
2022/07/11 09:56:42;;;;;;;0.75;0.30;;;22.00;87.60;;;;;;5072801;28;20131;-62
2022/07/11 09:59:10;;;;;;;0.60;0.20;;;22.00;87.60;;;;;;5069597;28;20024;-61
2022/07/11 10:01:36;;;;;;;0.30;0.20;;;22.00;87.80;;;;;;5071366;28;20031;-61
2022/07/11 10:04:03;;;;;;;0.60;0.30;;;22.00;87.70;;;;;;5062924;28;20029;-61
2022/07/11 10:06:29;;;;;;;0.20;0.20;;;22.10;87.40;;;;;;5064299;28;20108;-62
2022/07/11 10:08:54;;;;;;;0.43;0.30;;;22.10;87.30;;;;;;5065762;28;20095;-62
2022/07/11 10:11:20;;;;;;;0.20;0.20;;;22.20;87.10;;;;;;5069448;28;20067;-61
2022/07/11 10:13:46;;;;;;;0.65;0.20;;;22.30;86.90;;;;;;5070712;28;20029;-61
2022/07/11 10:17:05;;;;;;;1.08;0.30;;;22.30;86.70;;;;;;5066415;28;20048;-62
2022/07/11 10:20:00;;;;;;;0.52;0.30;;;22.40;86.30;;;;;;5033701;28;20063;-61
2022/07/11 10:22:26;;;;;;;0.30;0.30;;;22.40;86.50;;;;;;5069371;28;20031;-64
2022/07/11 10:25:27;;;;;;;0.93;0.20;;;22.40;86.30;;;;;;5062461;28;20028;-61
2022/07/11 10:28:42;;;;;;;0.35;0.28;;;22.60;85.80;;;;;;5062419;28;20078;-61
2022/07/11 10:35:51;;;;;;;0.43;0.20;;;22.80;85.10;;;;;;4948811;28;20514;-61
2022/07/11 10:38:17;;;;;;;0.30;0.20;;;22.90;84.90;;;;;;4954299;28;20038;-61
2022/07/11 10:40:51;;;;;;;0.47;0.30;;;22.90;84.80;;;;;;5067070;28;20476;-61
2022/07/11 10:43:20;;;;;;;0.65;0.40;;;23.00;84.30;;;;;;5080573;28;20035;-61
2022/07/11 10:45:58;;;;;;;0.30;0.20;;;22.90;84.20;;;;;;5074895;28;20362;-61
2022/07/11 10:48:24;;;;;;;0.30;0.22;;;22.90;84.20;;;;;;5073084;28;20056;-61
2022/07/11 10:51:26;;;;;;;0.40;0.20;;;22.90;84.20;;;;;;5088283;28;20020;-61
2022/07/11 10:53:53;;;;;;;1.08;0.30;;;22.90;83.90;;;;;;5078897;28;20378;-61
2022/07/11 10:56:52;;;;;;;0.35;0.20;;;22.90;84.20;;;;;;5057152;28;20056;-61
2022/07/11 10:59:19;;;;;;;0.32;0.20;;;22.90;83.80;;;;;;5061250;28;20075;-61
2022/07/11 11:02:10;;;;;;;0.32;0.30;;;22.90;83.80;;;;;;5062904;28;20044;-61
2022/07/11 11:04:42;;;;;;;0.20;0.17;;;22.90;83.50;;;;;;5067958;28;20024;-61
2022/07/11 11:07:52;;;;;;;0.40;0.20;;;22.80;83.60;;;;;;5070321;28;20100;-62
2022/07/11 11:10:18;;;;;;;2.05;0.32;;;22.90;83.50;;;;;;5065083;28;20400;-61
2022/07/11 11:13:05;;;;;;;0.20;0.17;;;22.90;83.70;;;;;;5070560;28;20029;-62
2022/07/11 11:15:41;;;;;;;0.40;0.20;;;22.90;83.20;;;;;;5060804;28;20021;-61
2022/07/11 11:18:24;;;;;;;0.28;0.20;;;23.00;83.30;;;;;;5062715;28;20083;-61
2022/07/11 11:21:02;;;;;;;0.30;0.20;;;23.10;82.80;;;;;;5065318;28;20073;-61
2022/07/11 11:23:34;;;;;;;0.50;0.30;;;23.20;82.80;;;;;;5082750;28;20063;-61
2022/07/11 11:26:26;;;;;;;0.55;0.40;;;23.30;82.60;;;;;;5064185;28;20021;-61
2022/07/11 11:29:32;;;;;;;0.40;0.20;;;23.40;81.70;;;;;;5076998;28;20052;-61
2022/07/11 11:32:54;;;;;;;0.95;0.30;;;23.50;81.30;;;;;;5052835;28;20044;-61
2022/07/11 11:35:20;;;;;;;0.63;0.25;;;23.60;81.00;;;;;;5060332;28;20398;-62
2022/07/11 11:38:08;;;;;;;0.35;0.22;;;23.60;81.00;;;;;;5068987;28;20507;-61
2022/07/11 11:40:48;;;;;;;0.40;0.20;;;23.70;80.60;;;;;;5072100;28;20082;-61
2022/07/11 11:47:09;;;;;;;0.22;0.20;;;23.80;80.40;;;;;;4966466;28;20035;-61
2022/07/11 11:50:01;;;;;;;0.70;0.27;;;23.80;80.20;;;;;;5012773;28;20087;-61
2022/07/11 11:53:08;;;;;;;3.67;0.20;;;23.90;80.20;;;;;;4994830;28;20036;-62
2022/07/11 11:55:36;;;;;;;1.58;0.22;;;24.00;79.80;;;;;;5030368;28;20025;-62
2022/07/11 11:58:02;;;;;;;0.20;0.20;;;24.00;79.80;;;;;;5030028;28;20075;-62
2022/07/11 12:00:30;;;;;;;1.45;0.20;;;24.10;79.70;;;;;;5030394;28;20112;-62
2022/07/11 12:02:58;;;;;;;0.13;0.10;;;24.20;79.40;;;;;;5030451;28;20365;-61
2022/07/11 12:05:23;;;;;;;0.20;0.20;;;24.30;79.10;;;;;;5072396;28;20081;-62
2022/07/11 12:08:22;;;;;;;;;;;;;;;;;;;;;
2022/07/11 12:11:12;;;;;;;0.47;0.20;;;24.30;78.90;;;;;;5043719;28;20067;-62
2022/07/11 12:13:38;;;;;;;0.40;0.22;;;24.40;78.70;;;;;;5052768;28;20489;-62
2022/07/11 12:22:47;;;;;;;0.50;0.20;;;24.60;77.90;;;;;;5040365;28;20206;-61
2022/07/11 12:25:13;;;;;;;1.55;0.20;;;24.60;78.10;;;;;;5053079;28;20060;-62
2022/07/11 12:27:39;;;;;;;1.55;0.20;;;24.70;77.80;;;;;;5057051;28;20057;-62
2022/07/11 12:30:05;;;;;;;0.40;0.20;;;24.80;77.50;;;;;;5057189;28;20055;-62
2022/07/11 12:32:30;;;;;;;0.40;0.20;;;24.90;77.10;;;;;;5063566;28;20026;-62
2022/07/11 12:34:56;;;;;;;1.38;0.20;;;24.90;76.90;;;;;;5063418;28;20025;-62
2022/07/11 12:37:27;;;;;;;0.35;0.10;;;25.00;76.50;;;;;;5056795;28;20028;-62
2022/07/11 12:39:56;;;;;;;0.50;0.28;;;25.20;76.20;;;;;;5057220;28;20036;-62
2022/07/11 12:42:29;;;;;;;0.30;0.20;;;25.30;75.30;;;;;;5077355;28;20025;-62
2022/07/11 12:44:59;;;;;;;0.15;0.15;;;25.40;75.00;;;;;;5068638;28;20108;-62
2022/07/11 12:47:29;;;;;;;0.43;0.20;;;25.50;74.80;;;;;;5068373;28;20057;-62
2022/07/11 12:49:56;;;;;;;0.20;0.10;;;25.50;74.70;;;;;;5054796;28;20021;-62
2022/07/11 12:52:22;;;;;;;0.63;0.25;;;25.40;74.60;;;;;;5056231;28;20226;-62
2022/07/11 12:54:49;;;;;;;0.80;0.50;;;25.40;74.60;;;;;;5059814;28;20047;-62
2022/07/11 12:57:17;;;;;;;0.82;0.40;;;25.30;74.70;;;;;;5069273;28;20033;-62
2022/07/11 12:59:43;;;;;;;1.92;0.30;;;25.20;74.70;;;;;;5070032;28;20024;-62
2022/07/11 13:02:10;;;;;;;1.10;0.20;;;25.10;74.70;;;;;;5064979;28;20032;-61
2022/07/11 13:17:56;;;;;;;0.50;0.40;;;25.30;74.10;;;;;;5065898;28;20032;-62
2022/07/11 13:20:23;;;;;;;0.38;0.20;;;25.30;74.40;;;;;;5068306;28;20042;-62
2022/07/11 13:22:50;;;;;;;0.45;0.20;;;25.20;74.30;;;;;;5074868;28;20099;-61
2022/07/11 13:25:17;;;;;;;1.00;0.30;;;25.20;74.30;;;;;;5065671;28;20029;-62
2022/07/11 13:27:44;;;;;;;0.20;0.20;;;25.30;74.20;;;;;;5066330;28;20044;-62
2022/07/11 13:30:16;;;;;;;0.40;0.20;;;25.40;74.00;;;;;;5053485;28;20024;-62
2022/07/11 13:32:45;;;;;;;0.73;0.20;;;25.70;73.90;;;;;;5066715;28;20027;-62
2022/07/11 13:35:11;;;;;;;0.20;0.20;;;25.90;73.40;;;;;;5068923;28;20111;-62
2022/07/11 13:38:08;;;;;;;0.40;0.30;;;26.10;72.70;;;;;;5065543;28;20111;-62